F/V Jeremi Simon — FHAF — position and weather

sailwx.info

Track history (hours):
 
Tides and Currents Weather Stations Pressure Air Temp Water Temp Dewpoint Dewpoint Depression Visibility Wind Speed Wind Dir Waves Ship Positions

F/V Jeremi Simon

Last reported at 2017-Jan-15 08:33 UTC. Time now 2017-Jan-18 12:12 UTC.
Position N 46°11' W 001°50'.

Length 20 m.

Type: Other ship. MMSI: 227415000.

Date/timePositionNaut miles runAvg speedWind from/ knotsBaromVisibWave heightAir tempDewpointWater temp
2017-Jan-15 08:33N 46°11' W 001°50'1010.1
2017-Jan-15 07:33N 46°21' W 001°52'1010.1
2017-Jan-15 06:33N 46°31' W 001°55'1010.2
2017-Jan-15 05:33N 46°41' W 001°57'  
2017-Jan-12 01:34N 46°42' W 001°56'2 1.6
2017-Jan-12 00:33N 46°40' W 001°57'2 1.6
2017-Jan-11 23:33N 46°39' W 001°57'4 4.3
2017-Jan-11 22:33N 46°34' W 001°56'9 9.3
2017-Jan-11 21:33N 46°25' W 001°54'9 9.3
2017-Jan-11 20:34N 46°16' W 001°52'9 9.4
2017-Jan-11 19:33N 46°07' W 001°50'9 9.3
2017-Jan-11 18:32N 45°57' W 001°48'  
2017-Jan-08 06:33N 46°10' W 001°50'10 9.8
2017-Jan-08 05:33N 46°19' W 001°52'10 9.9
2017-Jan-08 04:33N 46°29' W 001°55'7 7.5
2017-Jan-08 03:33N 46°36' W 001°57'3 2.6
2017-Jan-08 02:34N 46°39' W 001°57'3 0.1
2017-Jan-06 11:32N 46°42' W 001°57'0 0.0
2017-Jan-06 10:31N 46°42' W 001°57'0 0.0
2017-Jan-06 09:33N 46°42' W 001°57'0 0.0
2017-Jan-06 08:29N 46°42' W 001°57'0 0.0
2017-Jan-06 07:32N 46°42' W 001°57'0 0.0
2017-Jan-05 10:33N 46°42' W 001°57'0 0.0
2017-Jan-05 09:33N 46°42' W 001°57'  
Track history (hours):
 
Tides and Currents Weather Stations Pressure Air Temp Water Temp Dewpoint Dewpoint Depression Visibility Wind Speed Wind Dir Waves Ship Positions

F/V Jeremi Simon

Last reported at 2017-Jan-15 08:33 UTC. Time now 2017-Jan-18 12:12 UTC.
Position N 46°11' W 001°50'.

Length 20 m.

Type: Other ship. MMSI: 227415000.

Date/timePositionNaut miles runAvg speedWind from/ knotsBaromVisibWave heightAir tempDewpointWater temp
2017-Jan-15 08:33N 46°11' W 001°50'1010.1
2017-Jan-15 07:33N 46°21' W 001°52'1010.1
2017-Jan-15 06:33N 46°31' W 001°55'1010.2
2017-Jan-15 05:33N 46°41' W 001°57'  
2017-Jan-12 01:34N 46°42' W 001°56'2 1.6
2017-Jan-12 00:33N 46°40' W 001°57'2 1.6
2017-Jan-11 23:33N 46°39' W 001°57'4 4.3
2017-Jan-11 22:33N 46°34' W 001°56'9 9.3
2017-Jan-11 21:33N 46°25' W 001°54'9 9.3
2017-Jan-11 20:34N 46°16' W 001°52'9 9.4
2017-Jan-11 19:33N 46°07' W 001°50'9 9.3
2017-Jan-11 18:32N 45°57' W 001°48'  
2017-Jan-08 06:33N 46°10' W 001°50'10 9.8
2017-Jan-08 05:33N 46°19' W 001°52'10 9.9
2017-Jan-08 04:33N 46°29' W 001°55'7 7.5
2017-Jan-08 03:33N 46°36' W 001°57'3 2.6
2017-Jan-08 02:34N 46°39' W 001°57'3 0.1
2017-Jan-06 11:32N 46°42' W 001°57'0 0.0
2017-Jan-06 10:31N 46°42' W 001°57'0 0.0
2017-Jan-06 09:33N 46°42' W 001°57'0 0.0
2017-Jan-06 08:29N 46°42' W 001°57'0 0.0
2017-Jan-06 07:32N 46°42' W 001°57'0 0.0
2017-Jan-05 10:33N 46°42' W 001°57'0 0.0
2017-Jan-05 09:33N 46°42' W 001°57'  

Dump ship's entire track history